Weather observations for the past three days for
Las Vegas - Henderson Executive Airport
Metric (Imperial)
Date Time (pdt) Wind (kph) Vis. (km) Weather Sky Cond. Temperature (ºC) Relative Humidity Wind Chill (°C) Heat Index (°C) Pressure Precipitation (cm)
Air Dwpt 6 hour altimeter (cm) sea level (mb) 1 hr 3 hr 6 hr
Max. Min.
09 23:56 S 13 16.09 Fair CLR 28.3 -7.8 9% 27 75.9 1010.1
09 22:56 SW 15 16.09 Fair CLR 28.9 -5.6 37.2 28.9 10% 27 75.84 1009.5
09 21:56 W 11 16.09 Fair CLR 32.2 -5.6 8% 30 75.82 1009.1
09 20:56 S 11 16.09 Fair CLR 31.7 -3.9 10% 30 75.79 1008.6
09 19:56 W 9 16.09 Fair CLR 33.9 -3.9 8% 31 75.72 1007.8
09 18:56 NW 6 16.09 Fair CLR 35.6 -5 7% 33 75.69 1007.5
09 17:56 Calm 16.09 Fair CLR 36.1 -6.1 6% 33 75.69 1007.5
09 16:56 W 19 16.09 Fair CLR 37.2 -7.2 37.8 32.2 5% 34 75.69 1007.6
09 15:56 N 11 16.09 Fair CLR 36.7 -6.7 6% 34 75.72 1007.8
09 14:56 Vrbl 9 16.09 Fair CLR 36.7 -4.4 7% 34 75.82 1008.8
09 13:56 NW 17 G 28 16.09 Fair CLR 36.7 -3.9 7% 34 75.87 1009.8
09 12:56 Vrbl 7 16.09 Fair CLR 35 -2.8 9% 32 75.95 1010.6
09 11:56 N 7 16.09 Fair CLR 33.9 -2.8 9% 31 76 1011.6
09 10:56 N 11 16.09 Fair CLR 32.8 -2.8 32.8 22.8 10% 30 76.02 1012.0
09 09:56 Vrbl 6 16.09 Fair CLR 31.1 -2.8 11% 29 76.02 1012.1
09 08:56 W 6 16.09 Fair CLR 30 0 14% 28 76.02 1011.9
09 07:56 SW 15 16.09 Fair CLR 27.2 1.7 19% 26 76.02 1012.0
09 06:56 SW 22 16.09 Fair CLR 25.6 1.7 21% 25 75.97 1011.4
09 05:56 S 19 16.09 Fair CLR 22.8 1.7 25% 75.92 1010.8
09 04:56 SW 22 16.09 Fair CLR 23.9 1.1 28.9 23.9 22% 25 75.87 1010.1
09 03:56 S 19 16.09 Fair CLR 25.6 0.6 19% 25 75.87 1009.8
09 02:56 SW 22 16.09 Fair CLR 26.7 0 17% 26 75.84 1009.6
09 01:56 S 24 16.09 Fair CLR 27.2 0.6 18% 26 75.87 1009.7
09 00:56 S 19 16.09 Fair CLR 27.8 -1.1 15% 27 75.87 1009.8
08 23:56 SW 22 16.09 Fair CLR 27.2 -5.6 11% 26 75.84 1009.7
08 22:56 S 17 16.09 Fair CLR 28.3 -5.6 37.2 28.3 10% 27 75.84 1009.4
08 21:56 S 15 16.09 Fair CLR 29.4 -5 10% 28 75.82 1009.5
08 20:56 W 11 16.09 Fair CLR 32.2 -5 9% 30 75.79 1009.0
08 19:56 W 17 16.09 Fair CLR 32.8 -3.9 9% 30 75.77 1008.6
08 18:56 SW 19 16.09 Fair CLR 34.4 -3.9 8% 32 75.74 1008.2
08 17:56 W 17 16.09 Fair CLR 36.1 -3.3 8% 33 75.74 1008.2
08 16:56 W 22 G 31 14.48 Fair CLR 36.7 -2.8 37.2 32.2 8% 34 75.77 1008.5
08 15:56 Vrbl 6 16.09 Fair CLR 36.1 -4.4 7% 33 75.79 1008.9
08 14:56 Vrbl 6 16.09 Fair CLR 36.1 -1.7 9% 33 75.84 1009.5
08 13:56 N 15 16.09 Fair CLR 35.6 -1.7 9% 33 75.9 1010.4
08 12:56 W 7 16.09 Fair CLR 34.4 -2.2 9% 32 76 1011.6
08 11:56 Calm 16.09 Fair CLR 33.9 -1.1 10% 31 76.05 1012.2
08 10:56 Vrbl 6 16.09 Fair CLR 32.2 -0.6 32.8 21.1 12% 30 76.07 1012.8
08 09:56 Calm 16.09 Fair CLR 30.6 -0.6 13% 29 76.1 1013.0
08 08:56 SW 17 16.09 Fair CLR 28.9 2.2 18% 27 76.07 1012.9
08 07:56 SW 19 16.09 Fair CLR 26.1 2.2 21% 26 76.07 1013.0
08 06:56 S 15 16.09 Fair CLR 23.3 1.7 24% 76.05 1012.7
08 05:56 SW 24 16.09 Fair CLR 21.7 1.1 26% 76 1012.0
08 04:56 S 15 16.09 Fair CLR 21.1 -1.1 25.6 21.1 23% 75.97 1011.7
08 03:56 S 11 16.09 Fair CLR 22.2 -2.8 19% 75.97 1011.6
08 02:56 SW 13 16.09 Fair CLR 23.3 -3.3 17% 75.95 1011.4
08 01:56 S 15 16.09 Fair CLR 24.4 -4.4 14% 24 75.92 1011.0
08 00:56 S 15 16.09 Fair CLR 23.9 -6.1 13% 24 75.95 1011.4
07 23:56 S 9 16.09 Fair CLR 25 -5.6 13% 25 75.95 1011.4
07 22:56 S 17 16.09 Fair CLR 25.6 -5 33.3 25.6 13% 25 75.95 1011.3
07 21:56 S 19 16.09 Fair CLR 27.8 -3.3 13% 26 75.95 1011.3
07 20:56 S 17 16.09 Fair CLR 28.3 -2.8 13% 27 75.92 1011.1
07 19:56 SW 6 16.09 Fair CLR 30.6 -2.8 11% 29 75.9 1010.6
07 18:56 E 13 16.09 Fair CLR 32.2 -2.2 11% 30 75.84 1010.3
07 17:56 N 6 16.09 Fair CLR 32.8 -2.2 10% 30 75.87 1010.5
07 16:56 N 11 16.09 Fair CLR 32.8 -2.8 33.3 27.8 10% 30 75.9 1010.9
07 15:56 NE 13 16.09 Fair CLR 33.3 -2.8 10% 31 75.92 1011.3
07 14:56 N 9 16.09 Fair CLR 31.7 -2.8 11% 30 76.02 1012.6
07 13:56 Vrbl 6 16.09 Fair CLR 31.7 -3.3 10% 30 76.1 1013.7
07 12:56 Calm 16.09 Fair CLR 30.6 -3.3 11% 29 76.17 1014.7
07 11:56 Calm 16.09 Fair CLR 29.4 -5.6 10% 28 76.25 1015.8
07 10:56 NE 11 16.09 Fair CLR 27.8 -6.7 27.8 15 10% 26 76.33 1016.6
07 09:56 Vrbl 7 16.09 Fair CLR 26.1 -5 12% 25 76.35 1017.0
07 08:56 Calm 16.09 Fair CLR 24.4 -3.9 15% 24 76.38 1017.4
07 07:56 SW 6 16.09 Fair CLR 22.2 -2.8 19% 76.38 1017.6
07 06:56 S 7 16.09 Fair CLR 18.3 -0.6 28% 76.38 1017.7
07 05:56 S 11 16.09 Fair CLR 15.6 -0.6 33% 76.33 1017.3
07 04:56 S 11 16.09 Fair CLR 16.1 -1.1 22.8 16.1 31% 76.3 1017.1
07 03:56 SE 9 16.09 Fair CLR 17.2 0.6 33% 76.3 1017.0
07 02:56 S 13 16.09 Fair CLR 18.3 0.6 31% 76.3 1016.7
07 01:56 S 13 16.09 Fair CLR 18.9 0 28% 76.3 1016.9
07 00:56 Calm 16.09 Fair CLR 21.7 0.6 25% 76.3 1016.8
Date Time (pdt) Wind (kph) Vis. (km) Weather Sky Cond. Air Dwpt Max. Min. Relative Humidity Wind Chill (°C) Heat Index (°C) altimeter (cm) sea level (mb) 1 hr 3 hr 6 hr
6 hour
Temperature (ºC) Pressure Precipitation (cm)